sensor_id;sensor_type;location;lat;lon;timestamp;temperature;humidity
56298;DHT22;42208;6.376;-10.782;2022-09-23T00:01:23;25.00;99.90
56298;DHT22;42208;6.376;-10.782;2022-09-23T00:03:52;25.00;99.90
56298;DHT22;42208;6.376;-10.782;2022-09-23T00:06:22;24.90;99.90
56298;DHT22;42208;6.376;-10.782;2022-09-23T00:08:51;24.90;99.90
56298;DHT22;42208;6.376;-10.782;2022-09-23T00:11:21;25.00;99.90
56298;DHT22;42208;6.376;-10.782;2022-09-23T00:13:53;25.00;99.90
56298;DHT22;42208;6.376;-10.782;2022-09-23T00:16:27;24.90;99.90
56298;DHT22;42208;6.376;-10.782;2022-09-23T00:18:56;25.00;99.90
56298;DHT22;42208;6.376;-10.782;2022-09-23T00:21:24;25.10;99.90
56298;DHT22;42208;6.376;-10.782;2022-09-23T00:23:53;25.00;99.90
56298;DHT22;42208;6.376;-10.782;2022-09-23T00:26:22;25.10;99.90
56298;DHT22;42208;6.376;-10.782;2022-09-23T00:28:51;25.10;99.90
56298;DHT22;42208;6.376;-10.782;2022-09-23T00:31:21;25.10;99.90
56298;DHT22;42208;6.376;-10.782;2022-09-23T00:33:59;25.10;99.90
56298;DHT22;42208;6.376;-10.782;2022-09-23T00:36:28;25.20;99.90
56298;DHT22;42208;6.376;-10.782;2022-09-23T00:38:57;25.20;99.90
56298;DHT22;42208;6.376;-10.782;2022-09-23T00:41:26;25.30;99.90
56298;DHT22;42208;6.376;-10.782;2022-09-23T00:43:58;25.20;99.90
56298;DHT22;42208;6.376;-10.782;2022-09-23T00:46:42;25.20;99.90
56298;DHT22;42208;6.376;-10.782;2022-09-23T00:49:14;25.10;99.90
56298;DHT22;42208;6.376;-10.782;2022-09-23T00:51:54;25.10;99.90
56298;DHT22;42208;6.376;-10.782;2022-09-23T00:54:25;25.10;99.90
56298;DHT22;42208;6.376;-10.782;2022-09-23T00:56:55;25.20;99.90
56298;DHT22;42208;6.376;-10.782;2022-09-23T01:00:23;25.20;99.90
56298;DHT22;42208;6.376;-10.782;2022-09-23T01:02:52;25.20;99.90
56298;DHT22;42208;6.376;-10.782;2022-09-23T01:05:20;25.20;99.90
56298;DHT22;42208;6.376;-10.782;2022-09-23T01:07:49;25.20;99.90
56298;DHT22;42208;6.376;-10.782;2022-09-23T01:10:18;25.20;99.90
56298;DHT22;42208;6.376;-10.782;2022-09-23T01:13:07;25.30;99.90
56298;DHT22;42208;6.376;-10.782;2022-09-23T01:15:56;25.30;99.90
56298;DHT22;42208;6.376;-10.782;2022-09-23T01:26:57;25.10;99.90
56298;DHT22;42208;6.376;-10.782;2022-09-23T01:32:01;25.10;99.90
56298;DHT22;42208;6.376;-10.782;2022-09-23T01:39:43;25.10;99.90
56298;DHT22;42208;6.376;-10.782;2022-09-23T01:42:24;25.00;99.90
56298;DHT22;42208;6.376;-10.782;2022-09-23T01:45:15;24.80;99.90
56298;DHT22;42208;6.376;-10.782;2022-09-23T01:48:05;24.80;99.90
56298;DHT22;42208;6.376;-10.782;2022-09-23T01:50:42;24.80;99.90
56298;DHT22;42208;6.376;-10.782;2022-09-23T01:55:54;24.70;99.90
56298;DHT22;42208;6.376;-10.782;2022-09-23T01:58:40;24.80;99.90
56298;DHT22;42208;6.376;-10.782;2022-09-23T02:01:13;24.80;99.90
56298;DHT22;42208;6.376;-10.782;2022-09-23T02:03:56;24.80;99.90
56298;DHT22;42208;6.376;-10.782;2022-09-23T02:06:35;24.70;99.90
56298;DHT22;42208;6.376;-10.782;2022-09-23T02:09:10;24.70;99.90
56298;DHT22;42208;6.376;-10.782;2022-09-23T02:11:40;24.70;99.90
56298;DHT22;42208;6.376;-10.782;2022-09-23T02:14:18;24.80;99.90
56298;DHT22;42208;6.376;-10.782;2022-09-23T02:16:53;24.80;99.90
56298;DHT22;42208;6.376;-10.782;2022-09-23T02:19:38;24.80;99.90
56298;DHT22;42208;6.376;-10.782;2022-09-23T02:22:15;24.80;99.90
56298;DHT22;42208;6.376;-10.782;2022-09-23T02:24:46;24.70;99.90
56298;DHT22;42208;6.376;-10.782;2022-09-23T02:29:56;24.80;99.90
56298;DHT22;42208;6.376;-10.782;2022-09-23T02:35:24;24.80;99.90
56298;DHT22;42208;6.376;-10.782;2022-09-23T02:40:40;24.80;99.90
56298;DHT22;42208;6.376;-10.782;2022-09-23T02:43:20;24.70;99.90
56298;DHT22;42208;6.376;-10.782;2022-09-23T02:45:49;24.80;99.90
56298;DHT22;42208;6.376;-10.782;2022-09-23T02:48:30;24.90;99.90
56298;DHT22;42208;6.376;-10.782;2022-09-23T02:51:01;24.90;99.90
56298;DHT22;42208;6.376;-10.782;2022-09-23T02:53:32;24.90;99.90
56298;DHT22;42208;6.376;-10.782;2022-09-23T02:56:15;24.90;99.90
56298;DHT22;42208;6.376;-10.782;2022-09-23T02:58:44;24.90;99.90
56298;DHT22;42208;6.376;-10.782;2022-09-23T03:09:33;24.90;99.90
56298;DHT22;42208;6.376;-10.782;2022-09-23T03:15:20;25.00;99.90
56298;DHT22;42208;6.376;-10.782;2022-09-23T03:20:35;24.90;99.90
56298;DHT22;42208;6.376;-10.782;2022-09-23T03:23:07;24.90;99.90
56298;DHT22;42208;6.376;-10.782;2022-09-23T03:25:38;25.00;99.90
56298;DHT22;42208;6.376;-10.782;2022-09-23T03:28:08;25.00;99.90
56298;DHT22;42208;6.376;-10.782;2022-09-23T03:30:37;25.00;99.90
56298;DHT22;42208;6.376;-10.782;2022-09-23T03:33:09;25.00;99.90
56298;DHT22;42208;6.376;-10.782;2022-09-23T03:35:47;25.00;99.90
56298;DHT22;42208;6.376;-10.782;2022-09-23T03:38:22;25.00;99.90
56298;DHT22;42208;6.376;-10.782;2022-09-23T03:40:51;25.00;99.90
56298;DHT22;42208;6.376;-10.782;2022-09-23T03:43:20;25.00;99.90
56298;DHT22;42208;6.376;-10.782;2022-09-23T03:45:52;25.00;99.90
56298;DHT22;42208;6.376;-10.782;2022-09-23T03:48:21;25.00;99.90
56298;DHT22;42208;6.376;-10.782;2022-09-23T03:50:49;25.10;99.90
56298;DHT22;42208;6.376;-10.782;2022-09-23T03:53:17;25.10;99.90
56298;DHT22;42208;6.376;-10.782;2022-09-23T03:55:46;25.10;99.90
56298;DHT22;42208;6.376;-10.782;2022-09-23T03:58:14;25.10;99.90
56298;DHT22;42208;6.376;-10.782;2022-09-23T04:00:43;25.10;99.90
56298;DHT22;42208;6.376;-10.782;2022-09-23T04:03:11;25.10;99.90
56298;DHT22;42208;6.376;-10.782;2022-09-23T04:05:39;25.10;99.90
56298;DHT22;42208;6.376;-10.782;2022-09-23T04:08:07;25.10;99.90
56298;DHT22;42208;6.376;-10.782;2022-09-23T04:10:40;25.10;99.90
56298;DHT22;42208;6.376;-10.782;2022-09-23T04:13:08;25.10;99.90
56298;DHT22;42208;6.376;-10.782;2022-09-23T04:15:36;25.10;99.90
56298;DHT22;42208;6.376;-10.782;2022-09-23T04:18:04;25.10;99.90
56298;DHT22;42208;6.376;-10.782;2022-09-23T04:20:32;25.00;99.90
56298;DHT22;42208;6.376;-10.782;2022-09-23T04:23:00;25.10;99.90
56298;DHT22;42208;6.376;-10.782;2022-09-23T04:25:29;25.10;99.90
56298;DHT22;42208;6.376;-10.782;2022-09-23T04:27:57;25.10;99.90
56298;DHT22;42208;6.376;-10.782;2022-09-23T04:30:25;25.10;99.90
56298;DHT22;42208;6.376;-10.782;2022-09-23T04:32:53;25.10;99.90
56298;DHT22;42208;6.376;-10.782;2022-09-23T04:35:21;25.10;99.90
56298;DHT22;42208;6.376;-10.782;2022-09-23T04:37:50;25.10;99.90
56298;DHT22;42208;6.376;-10.782;2022-09-23T04:40:18;25.10;99.90
56298;DHT22;42208;6.376;-10.782;2022-09-23T04:42:46;25.10;99.90
56298;DHT22;42208;6.376;-10.782;2022-09-23T04:45:14;25.10;99.90
56298;DHT22;42208;6.376;-10.782;2022-09-23T04:47:42;25.00;99.90
56298;DHT22;42208;6.376;-10.782;2022-09-23T04:50:10;25.00;99.90
56298;DHT22;42208;6.376;-10.782;2022-09-23T04:52:39;25.10;99.90
56298;DHT22;42208;6.376;-10.782;2022-09-23T04:55:07;25.00;99.90
56298;DHT22;42208;6.376;-10.782;2022-09-23T04:57:37;25.00;99.90
56298;DHT22;42208;6.376;-10.782;2022-09-23T05:00:06;25.10;99.90
56298;DHT22;42208;6.376;-10.782;2022-09-23T05:02:40;25.00;99.90
56298;DHT22;42208;6.376;-10.782;2022-09-23T05:05:08;25.00;99.90
56298;DHT22;42208;6.376;-10.782;2022-09-23T05:07:37;25.00;99.90
56298;DHT22;42208;6.376;-10.782;2022-09-23T05:10:06;25.00;99.90
56298;DHT22;42208;6.376;-10.782;2022-09-23T05:12:34;24.90;99.90
56298;DHT22;42208;6.376;-10.782;2022-09-23T05:15:03;25.00;99.90
56298;DHT22;42208;6.376;-10.782;2022-09-23T05:17:31;24.90;99.90
56298;DHT22;42208;6.376;-10.782;2022-09-23T05:19:59;25.00;99.90
56298;DHT22;42208;6.376;-10.782;2022-09-23T05:23:13;25.00;99.90
56298;DHT22;42208;6.376;-10.782;2022-09-23T05:25:41;25.00;99.90
56298;DHT22;42208;6.376;-10.782;2022-09-23T05:28:09;24.90;99.90
56298;DHT22;42208;6.376;-10.782;2022-09-23T05:30:37;24.90;99.90
56298;DHT22;42208;6.376;-10.782;2022-09-23T05:33:05;24.90;99.90
56298;DHT22;42208;6.376;-10.782;2022-09-23T05:35:33;24.90;99.90
56298;DHT22;42208;6.376;-10.782;2022-09-23T05:38:01;24.90;99.90
56298;DHT22;42208;6.376;-10.782;2022-09-23T05:40:30;24.90;99.90
56298;DHT22;42208;6.376;-10.782;2022-09-23T05:42:58;24.90;99.90
56298;DHT22;42208;6.376;-10.782;2022-09-23T05:45:26;25.00;99.90
56298;DHT22;42208;6.376;-10.782;2022-09-23T05:47:54;25.00;99.90
56298;DHT22;42208;6.376;-10.782;2022-09-23T05:50:22;25.00;99.90
56298;DHT22;42208;6.376;-10.782;2022-09-23T05:52:50;25.00;99.90
56298;DHT22;42208;6.376;-10.782;2022-09-23T05:55:19;24.90;99.90
56298;DHT22;42208;6.376;-10.782;2022-09-23T05:57:47;24.90;99.90
56298;DHT22;42208;6.376;-10.782;2022-09-23T06:00:15;24.90;99.90
56298;DHT22;42208;6.376;-10.782;2022-09-23T06:02:45;24.80;99.90
56298;DHT22;42208;6.376;-10.782;2022-09-23T06:05:14;24.90;99.90
56298;DHT22;42208;6.376;-10.782;2022-09-23T06:07:42;24.80;99.90
56298;DHT22;42208;6.376;-10.782;2022-09-23T06:10:10;24.80;99.90
56298;DHT22;42208;6.376;-10.782;2022-09-23T06:12:38;24.80;99.90
56298;DHT22;42208;6.376;-10.782;2022-09-23T06:15:07;24.80;99.90
56298;DHT22;42208;6.376;-10.782;2022-09-23T06:17:35;24.70;99.90
56298;DHT22;42208;6.376;-10.782;2022-09-23T06:20:03;24.80;99.90
56298;DHT22;42208;6.376;-10.782;2022-09-23T06:22:31;24.70;99.90
56298;DHT22;42208;6.376;-10.782;2022-09-23T06:25:05;24.70;99.90
56298;DHT22;42208;6.376;-10.782;2022-09-23T06:27:33;24.70;99.90
56298;DHT22;42208;6.376;-10.782;2022-09-23T06:30:02;24.70;99.90
56298;DHT22;42208;6.376;-10.782;2022-09-23T06:32:30;24.70;99.90
56298;DHT22;42208;6.376;-10.782;2022-09-23T06:34:58;24.70;99.90
56298;DHT22;42208;6.376;-10.782;2022-09-23T06:37:26;24.70;99.90
56298;DHT22;42208;6.376;-10.782;2022-09-23T06:39:55;24.70;99.90
56298;DHT22;42208;6.376;-10.782;2022-09-23T06:42:23;24.70;99.90
56298;DHT22;42208;6.376;-10.782;2022-09-23T06:44:51;24.60;99.90
56298;DHT22;42208;6.376;-10.782;2022-09-23T06:47:19;24.70;99.90
56298;DHT22;42208;6.376;-10.782;2022-09-23T06:49:47;24.70;99.90
56298;DHT22;42208;6.376;-10.782;2022-09-23T06:52:15;24.70;99.90
56298;DHT22;42208;6.376;-10.782;2022-09-23T06:54:44;24.70;99.90
56298;DHT22;42208;6.376;-10.782;2022-09-23T06:57:12;24.70;99.90
56298;DHT22;42208;6.376;-10.782;2022-09-23T06:59:40;24.70;99.90
56298;DHT22;42208;6.376;-10.782;2022-09-23T07:02:11;24.80;99.90
56298;DHT22;42208;6.376;-10.782;2022-09-23T07:04:40;24.80;99.90
56298;DHT22;42208;6.376;-10.782;2022-09-23T07:07:08;24.80;99.90
56298;DHT22;42208;6.376;-10.782;2022-09-23T07:09:36;24.80;99.90
56298;DHT22;42208;6.376;-10.782;2022-09-23T07:12:04;24.80;99.90
56298;DHT22;42208;6.376;-10.782;2022-09-23T07:14:32;24.90;99.90
56298;DHT22;42208;6.376;-10.782;2022-09-23T07:17:01;25.00;99.90
56298;DHT22;42208;6.376;-10.782;2022-09-23T07:19:29;25.00;99.90
56298;DHT22;42208;6.376;-10.782;2022-09-23T07:21:57;25.00;99.90
56298;DHT22;42208;6.376;-10.782;2022-09-23T07:24:25;25.00;99.90
56298;DHT22;42208;6.376;-10.782;2022-09-23T07:26:53;25.00;99.90
56298;DHT22;42208;6.376;-10.782;2022-09-23T07:29:22;25.10;99.90
56298;DHT22;42208;6.376;-10.782;2022-09-23T07:31:50;25.20;99.90
56298;DHT22;42208;6.376;-10.782;2022-09-23T07:34:20;25.20;99.90
56298;DHT22;42208;6.376;-10.782;2022-09-23T07:36:48;25.20;99.90
56298;DHT22;42208;6.376;-10.782;2022-09-23T07:39:17;25.20;99.90
56298;DHT22;42208;6.376;-10.782;2022-09-23T07:41:45;25.30;99.90
56298;DHT22;42208;6.376;-10.782;2022-09-23T07:44:13;25.30;99.90
56298;DHT22;42208;6.376;-10.782;2022-09-23T07:46:42;25.30;99.90
56298;DHT22;42208;6.376;-10.782;2022-09-23T07:49:11;25.30;99.90
56298;DHT22;42208;6.376;-10.782;2022-09-23T07:51:41;25.30;99.90
56298;DHT22;42208;6.376;-10.782;2022-09-23T07:54:11;25.30;99.90
56298;DHT22;42208;6.376;-10.782;2022-09-23T07:56:42;25.40;99.90
56298;DHT22;42208;6.376;-10.782;2022-09-23T07:59:13;25.40;99.90
56298;DHT22;42208;6.376;-10.782;2022-09-23T08:01:44;25.40;99.90
56298;DHT22;42208;6.376;-10.782;2022-09-23T08:04:20;25.40;99.90
56298;DHT22;42208;6.376;-10.782;2022-09-23T08:06:52;25.40;99.90
56298;DHT22;42208;6.376;-10.782;2022-09-23T08:09:23;25.40;99.90
56298;DHT22;42208;6.376;-10.782;2022-09-23T08:11:51;25.40;99.90
56298;DHT22;42208;6.376;-10.782;2022-09-23T08:14:20;25.40;99.90
56298;DHT22;42208;6.376;-10.782;2022-09-23T08:16:49;25.40;99.90
56298;DHT22;42208;6.376;-10.782;2022-09-23T08:19:18;25.40;99.90
56298;DHT22;42208;6.376;-10.782;2022-09-23T08:21:46;25.40;99.90
56298;DHT22;42208;6.376;-10.782;2022-09-23T08:24:17;25.50;99.90
56298;DHT22;42208;6.376;-10.782;2022-09-23T08:26:47;25.60;99.90
56298;DHT22;42208;6.376;-10.782;2022-09-23T08:29:17;25.60;99.90
56298;DHT22;42208;6.376;-10.782;2022-09-23T08:31:45;25.70;99.90
56298;DHT22;42208;6.376;-10.782;2022-09-23T08:34:15;25.70;99.90
56298;DHT22;42208;6.376;-10.782;2022-09-23T08:36:43;25.80;99.90
56298;DHT22;42208;6.376;-10.782;2022-09-23T08:39:16;25.80;99.90
56298;DHT22;42208;6.376;-10.782;2022-09-23T08:41:56;25.90;99.90
56298;DHT22;42208;6.376;-10.782;2022-09-23T08:44:50;25.90;99.90
56298;DHT22;42208;6.376;-10.782;2022-09-23T08:47:38;26.00;99.90
56298;DHT22;42208;6.376;-10.782;2022-09-23T08:50:38;26.20;99.90
56298;DHT22;42208;6.376;-10.782;2022-09-23T08:53:35;26.30;99.90
56298;DHT22;42208;6.376;-10.782;2022-09-23T09:01:51;26.60;99.90
56298;DHT22;42208;6.376;-10.782;2022-09-23T09:10:19;26.70;99.90
56298;DHT22;42208;6.376;-10.782;2022-09-23T09:13:20;26.70;99.90
56298;DHT22;42208;6.376;-10.782;2022-09-23T09:18:35;26.90;99.90
56298;DHT22;42208;6.376;-10.782;2022-09-23T09:21:12;26.90;99.90
56298;DHT22;42208;6.376;-10.782;2022-09-23T09:23:54;26.90;99.90
56298;DHT22;42208;6.376;-10.782;2022-09-23T09:26:31;26.90;99.90
56298;DHT22;42208;6.376;-10.782;2022-09-23T09:29:11;26.80;99.90
56298;DHT22;42208;6.376;-10.782;2022-09-23T09:32:31;26.90;99.90
56298;DHT22;42208;6.376;-10.782;2022-09-23T09:35:08;26.90;99.90
56298;DHT22;42208;6.376;-10.782;2022-09-23T09:37:48;27.00;99.90
56298;DHT22;42208;6.376;-10.782;2022-09-23T09:40:16;27.00;99.90
56298;DHT22;42208;6.376;-10.782;2022-09-23T09:42:48;27.00;99.90
56298;DHT22;42208;6.376;-10.782;2022-09-23T09:48:14;27.10;99.90
56298;DHT22;42208;6.376;-10.782;2022-09-23T09:50:52;27.20;99.90
56298;DHT22;42208;6.376;-10.782;2022-09-23T09:53:23;27.20;99.90
56298;DHT22;42208;6.376;-10.782;2022-09-23T09:56:05;27.20;99.90
56298;DHT22;42208;6.376;-10.782;2022-09-23T09:58:47;27.30;99.90
56298;DHT22;42208;6.376;-10.782;2022-09-23T10:01:37;27.50;99.90
56298;DHT22;42208;6.376;-10.782;2022-09-23T10:04:29;27.50;99.90
56298;DHT22;42208;6.376;-10.782;2022-09-23T10:07:06;27.60;99.90
56298;DHT22;42208;6.376;-10.782;2022-09-23T10:09:36;27.60;99.90
56298;DHT22;42208;6.376;-10.782;2022-09-23T10:12:12;27.60;99.90
56298;DHT22;42208;6.376;-10.782;2022-09-23T10:14:45;27.60;99.90
56298;DHT22;42208;6.376;-10.782;2022-09-23T10:17:39;27.60;99.90
56298;DHT22;42208;6.376;-10.782;2022-09-23T10:20:07;27.60;99.90
56298;DHT22;42208;6.376;-10.782;2022-09-23T10:22:38;27.60;99.90
56298;DHT22;42208;6.376;-10.782;2022-09-23T10:25:14;27.60;99.90
56298;DHT22;42208;6.376;-10.782;2022-09-23T10:27:43;27.70;99.90
56298;DHT22;42208;6.376;-10.782;2022-09-23T10:32:43;27.70;99.90
56298;DHT22;42208;6.376;-10.782;2022-09-23T10:35:17;27.80;99.90
56298;DHT22;42208;6.376;-10.782;2022-09-23T10:37:58;27.80;99.90
56298;DHT22;42208;6.376;-10.782;2022-09-23T10:40:40;27.70;99.90
56298;DHT22;42208;6.376;-10.782;2022-09-23T10:46:15;27.60;99.90
56298;DHT22;42208;6.376;-10.782;2022-09-23T10:49:04;27.60;99.90
56298;DHT22;42208;6.376;-10.782;2022-09-23T10:52:02;27.60;99.90
56298;DHT22;42208;6.376;-10.782;2022-09-23T10:55:06;27.60;99.90
56298;DHT22;42208;6.376;-10.782;2022-09-23T11:00:20;27.60;99.90
56298;DHT22;42208;6.376;-10.782;2022-09-23T11:08:32;27.50;99.90
56298;DHT22;42208;6.376;-10.782;2022-09-23T11:11:26;27.50;99.90
56298;DHT22;42208;6.376;-10.782;2022-09-23T11:14:25;27.50;99.90
56298;DHT22;42208;6.376;-10.782;2022-09-23T11:29:19;27.70;99.90
56298;DHT22;42208;6.376;-10.782;2022-09-23T11:32:08;27.70;99.90
56298;DHT22;42208;6.376;-10.782;2022-09-23T11:34:59;27.80;99.90
56298;DHT22;42208;6.376;-10.782;2022-09-23T11:37:35;27.80;99.90
56298;DHT22;42208;6.376;-10.782;2022-09-23T11:40:30;27.90;99.90
56298;DHT22;42208;6.376;-10.782;2022-09-23T11:43:12;27.80;99.90
56298;DHT22;42208;6.376;-10.782;2022-09-23T11:45:55;27.90;99.90
56298;DHT22;42208;6.376;-10.782;2022-09-23T11:51:28;28.00;99.90
56298;DHT22;42208;6.376;-10.782;2022-09-23T11:56:41;28.10;99.90
56298;DHT22;42208;6.376;-10.782;2022-09-23T12:02:27;28.10;99.90
56298;DHT22;42208;6.376;-10.782;2022-09-23T12:05:05;28.20;99.90
56298;DHT22;42208;6.376;-10.782;2022-09-23T12:10:57;28.10;99.90
56298;DHT22;42208;6.376;-10.782;2022-09-23T12:17:03;28.20;99.90
56298;DHT22;42208;6.376;-10.782;2022-09-23T12:20:00;28.20;99.90
56298;DHT22;42208;6.376;-10.782;2022-09-23T12:22:55;28.30;99.90
56298;DHT22;42208;6.376;-10.782;2022-09-23T12:28:09;28.30;99.90
56298;DHT22;42208;6.376;-10.782;2022-09-23T12:35:53;28.20;99.90
56298;DHT22;42208;6.376;-10.782;2022-09-23T12:39:16;28.00;99.90
56298;DHT22;42208;6.376;-10.782;2022-09-23T12:41:45;28.00;99.90
56298;DHT22;42208;6.376;-10.782;2022-09-23T12:49:43;27.70;99.90
56298;DHT22;42208;6.376;-10.782;2022-09-23T12:54:45;27.50;99.90
56298;DHT22;42208;6.376;-10.782;2022-09-23T13:00:24;27.30;99.90
56298;DHT22;42208;6.376;-10.782;2022-09-23T13:02:58;27.20;99.90
56298;DHT22;42208;6.376;-10.782;2022-09-23T13:05:27;27.10;99.90
56298;DHT22;42208;6.376;-10.782;2022-09-23T13:08:21;27.20;99.90
56298;DHT22;42208;6.376;-10.782;2022-09-23T13:11:03;27.20;99.90
56298;DHT22;42208;6.376;-10.782;2022-09-23T13:13:41;27.20;99.90
56298;DHT22;42208;6.376;-10.782;2022-09-23T13:18:54;27.20;99.90
56298;DHT22;42208;6.376;-10.782;2022-09-23T13:27:12;27.20;99.90
56298;DHT22;42208;6.376;-10.782;2022-09-23T13:29:43;27.20;99.90
56298;DHT22;42208;6.376;-10.782;2022-09-23T13:32:17;27.20;99.90
56298;DHT22;42208;6.376;-10.782;2022-09-23T13:37:47;27.20;99.90
56298;DHT22;42208;6.376;-10.782;2022-09-23T13:43:22;27.10;99.90
56298;DHT22;42208;6.376;-10.782;2022-09-23T13:45:52;27.10;99.90
56298;DHT22;42208;6.376;-10.782;2022-09-23T13:48:23;27.20;99.90
56298;DHT22;42208;6.376;-10.782;2022-09-23T13:50:52;27.20;99.90
56298;DHT22;42208;6.376;-10.782;2022-09-23T13:53:30;27.30;99.90
56298;DHT22;42208;6.376;-10.782;2022-09-23T13:56:13;27.30;99.90
56298;DHT22;42208;6.376;-10.782;2022-09-23T13:58:42;27.40;99.90
56298;DHT22;42208;6.376;-10.782;2022-09-23T14:01:30;27.30;99.90
56298;DHT22;42208;6.376;-10.782;2022-09-23T14:03:59;27.50;99.90
56298;DHT22;42208;6.376;-10.782;2022-09-23T14:06:31;27.50;99.90
56298;DHT22;42208;6.376;-10.782;2022-09-23T14:09:06;27.60;99.90
56298;DHT22;42208;6.376;-10.782;2022-09-23T14:11:34;27.70;99.90
56298;DHT22;42208;6.376;-10.782;2022-09-23T14:14:03;27.80;99.90
56298;DHT22;42208;6.376;-10.782;2022-09-23T14:16:35;27.90;99.90
56298;DHT22;42208;6.376;-10.782;2022-09-23T14:19:05;28.00;99.90
56298;DHT22;42208;6.376;-10.782;2022-09-23T14:21:36;28.20;99.90
56298;DHT22;42208;6.376;-10.782;2022-09-23T14:24:16;28.40;99.90
56298;DHT22;42208;6.376;-10.782;2022-09-23T14:26:55;28.40;99.90
56298;DHT22;42208;6.376;-10.782;2022-09-23T14:29:36;28.50;99.90
56298;DHT22;42208;6.376;-10.782;2022-09-23T14:32:20;28.70;99.90
56298;DHT22;42208;6.376;-10.782;2022-09-23T14:34:51;28.80;99.90
56298;DHT22;42208;6.376;-10.782;2022-09-23T14:37:44;28.90;99.90
56298;DHT22;42208;6.376;-10.782;2022-09-23T14:40:19;29.00;99.90
56298;DHT22;42208;6.376;-10.782;2022-09-23T14:43:14;29.00;99.90
56298;DHT22;42208;6.376;-10.782;2022-09-23T14:45:39;29.30;99.90
56298;DHT22;42208;6.376;-10.782;2022-09-23T14:48:16;29.40;99.90
56298;DHT22;42208;6.376;-10.782;2022-09-23T14:50:48;29.60;99.90
56298;DHT22;42208;6.376;-10.782;2022-09-23T14:55:50;29.80;99.90
56298;DHT22;42208;6.376;-10.782;2022-09-23T14:58:23;29.80;99.90
56298;DHT22;42208;6.376;-10.782;2022-09-23T15:00:59;29.80;99.90
56298;DHT22;42208;6.376;-10.782;2022-09-23T15:03:28;29.70;99.90
56298;DHT22;42208;6.376;-10.782;2022-09-23T15:06:00;29.60;99.90
56298;DHT22;42208;6.376;-10.782;2022-09-23T15:08:35;29.50;99.90
56298;DHT22;42208;6.376;-10.782;2022-09-23T15:11:04;29.60;99.90
56298;DHT22;42208;6.376;-10.782;2022-09-23T15:13:40;29.30;99.90
56298;DHT22;42208;6.376;-10.782;2022-09-23T15:16:12;29.10;99.90
56298;DHT22;42208;6.376;-10.782;2022-09-23T15:18:44;29.40;99.90
56298;DHT22;42208;6.376;-10.782;2022-09-23T15:21:20;29.50;99.90
56298;DHT22;42208;6.376;-10.782;2022-09-23T15:23:54;29.70;99.90
56298;DHT22;42208;6.376;-10.782;2022-09-23T15:26:24;29.40;99.90
56298;DHT22;42208;6.376;-10.782;2022-09-23T15:28:55;29.40;99.90
56298;DHT22;42208;6.376;-10.782;2022-09-23T15:31:25;29.00;99.90
56298;DHT22;42208;6.376;-10.782;2022-09-23T15:33:53;28.80;99.90
56298;DHT22;42208;6.376;-10.782;2022-09-23T15:36:26;28.40;99.90
56298;DHT22;42208;6.376;-10.782;2022-09-23T15:39:00;28.40;99.90
56298;DHT22;42208;6.376;-10.782;2022-09-23T15:41:32;28.20;99.90
56298;DHT22;42208;6.376;-10.782;2022-09-23T15:44:27;28.20;99.90
56298;DHT22;42208;6.376;-10.782;2022-09-23T15:46:56;28.20;99.90
56298;DHT22;42208;6.376;-10.782;2022-09-23T15:49:35;28.20;99.90
56298;DHT22;42208;6.376;-10.782;2022-09-23T15:52:05;28.10;99.90
56298;DHT22;42208;6.376;-10.782;2022-09-23T15:54:33;28.00;99.90
56298;DHT22;42208;6.376;-10.782;2022-09-23T15:57:01;28.30;99.90
56298;DHT22;42208;6.376;-10.782;2022-09-23T15:59:30;29.00;99.90
56298;DHT22;42208;6.376;-10.782;2022-09-23T16:02:01;29.10;99.90
56298;DHT22;42208;6.376;-10.782;2022-09-23T16:04:30;29.40;99.90
56298;DHT22;42208;6.376;-10.782;2022-09-23T16:06:58;29.20;99.90
56298;DHT22;42208;6.376;-10.782;2022-09-23T16:09:26;29.00;99.90
56298;DHT22;42208;6.376;-10.782;2022-09-23T16:11:55;28.70;99.90
56298;DHT22;42208;6.376;-10.782;2022-09-23T16:14:23;28.60;99.90
56298;DHT22;42208;6.376;-10.782;2022-09-23T16:16:51;28.50;99.90
56298;DHT22;42208;6.376;-10.782;2022-09-23T16:19:19;28.40;99.90
56298;DHT22;42208;6.376;-10.782;2022-09-23T16:21:48;28.30;99.90
56298;DHT22;42208;6.376;-10.782;2022-09-23T16:24:17;28.20;99.90
56298;DHT22;42208;6.376;-10.782;2022-09-23T16:26:50;28.10;99.90
56298;DHT22;42208;6.376;-10.782;2022-09-23T16:29:18;28.00;99.90
56298;DHT22;42208;6.376;-10.782;2022-09-23T16:31:46;27.90;99.90
56298;DHT22;42208;6.376;-10.782;2022-09-23T16:34:15;27.90;99.90
56298;DHT22;42208;6.376;-10.782;2022-09-23T16:36:43;27.80;99.90
56298;DHT22;42208;6.376;-10.782;2022-09-23T16:39:12;27.80;99.90
56298;DHT22;42208;6.376;-10.782;2022-09-23T16:41:41;27.70;99.90
56298;DHT22;42208;6.376;-10.782;2022-09-23T16:44:09;27.70;99.90
56298;DHT22;42208;6.376;-10.782;2022-09-23T16:46:38;27.60;99.90
56298;DHT22;42208;6.376;-10.782;2022-09-23T16:49:06;27.60;99.90
56298;DHT22;42208;6.376;-10.782;2022-09-23T16:51:34;27.60;99.90
56298;DHT22;42208;6.376;-10.782;2022-09-23T16:54:06;27.60;99.90
56298;DHT22;42208;6.376;-10.782;2022-09-23T16:56:39;27.60;99.90
56298;DHT22;42208;6.376;-10.782;2022-09-23T16:59:08;27.60;99.90
56298;DHT22;42208;6.376;-10.782;2022-09-23T17:01:36;27.70;99.90
56298;DHT22;42208;6.376;-10.782;2022-09-23T17:04:05;27.60;99.90
56298;DHT22;42208;6.376;-10.782;2022-09-23T17:06:33;27.70;99.90
56298;DHT22;42208;6.376;-10.782;2022-09-23T17:09:02;27.70;99.90
56298;DHT22;42208;6.376;-10.782;2022-09-23T17:11:30;27.80;99.90
56298;DHT22;42208;6.376;-10.782;2022-09-23T17:14:00;27.70;99.90
56298;DHT22;42208;6.376;-10.782;2022-09-23T17:16:30;27.60;99.90
56298;DHT22;42208;6.376;-10.782;2022-09-23T17:19:03;27.50;99.90
56298;DHT22;42208;6.376;-10.782;2022-09-23T17:21:32;27.30;99.90
56298;DHT22;42208;6.376;-10.782;2022-09-23T17:24:01;27.30;99.90
56298;DHT22;42208;6.376;-10.782;2022-09-23T17:26:29;27.20;99.90
56298;DHT22;42208;6.376;-10.782;2022-09-23T17:28:57;27.20;99.90
56298;DHT22;42208;6.376;-10.782;2022-09-23T17:31:25;27.10;99.90
56298;DHT22;42208;6.376;-10.782;2022-09-23T17:33:54;27.10;99.90
56298;DHT22;42208;6.376;-10.782;2022-09-23T17:36:22;27.10;99.90
56298;DHT22;42208;6.376;-10.782;2022-09-23T17:38:51;27.00;99.90
56298;DHT22;42208;6.376;-10.782;2022-09-23T17:41:19;26.90;99.90
56298;DHT22;42208;6.376;-10.782;2022-09-23T17:43:53;26.90;99.90
56298;DHT22;42208;6.376;-10.782;2022-09-23T17:46:21;26.90;99.90
56298;DHT22;42208;6.376;-10.782;2022-09-23T17:48:49;26.90;99.90
56298;DHT22;42208;6.376;-10.782;2022-09-23T17:51:18;26.80;99.90
56298;DHT22;42208;6.376;-10.782;2022-09-23T17:53:47;26.80;99.90
56298;DHT22;42208;6.376;-10.782;2022-09-23T17:56:18;26.80;99.90
56298;DHT22;42208;6.376;-10.782;2022-09-23T17:58:48;26.80;99.90
56298;DHT22;42208;6.376;-10.782;2022-09-23T18:01:25;26.80;99.90
56298;DHT22;42208;6.376;-10.782;2022-09-23T18:03:55;26.80;99.90
56298;DHT22;42208;6.376;-10.782;2022-09-23T18:06:29;26.70;99.90
56298;DHT22;42208;6.376;-10.782;2022-09-23T18:08:59;26.70;99.90